Time;durP1;ratioP1;P1;durP2;ratioP2;P2;SDS_P1;SDS_P2;PMS_P1;PMS_P2;Temp;Humidity;BMP_temperature;BMP_pressure;BME280_temperature;BME280_humidity;BME280_pressure;Samples;Min_cycle;Max_cycle;Signal;HPM_P1;HPM_P2
2023/08/28 00:00:37;;;;;;;1.83;0.70;;;17.00;99.90;;;16.41;100.00;101244.56;4153428;28;20041;-75
2023/08/28 00:02:38;;;;;;;3.35;0.85;;;17.00;99.90;;;16.42;100.00;101241.72;4152052;28;20401;-75
2023/08/28 00:04:39;;;;;;;4.43;1.33;;;17.00;99.90;;;16.40;100.00;101246.38;4151836;28;20038;-75
2023/08/28 00:06:40;;;;;;;3.38;0.90;;;17.00;99.90;;;16.40;100.00;101246.38;4152031;28;20030;-75
2023/08/28 00:08:41;;;;;;;4.22;1.05;;;17.00;99.90;;;16.43;100.00;101239.84;4152443;28;20088;-75
2023/08/28 00:10:42;;;;;;;2.78;0.90;;;17.10;99.90;;;16.43;100.00;101234.53;4153223;28;20049;-75
2023/08/28 00:12:43;;;;;;;3.35;0.95;;;17.00;99.90;;;16.46;100.00;101234.16;4151876;28;20037;-75
2023/08/28 00:14:44;;;;;;;3.00;0.90;;;17.10;99.90;;;16.47;100.00;101234.00;4151941;28;20029;-75
2023/08/28 00:16:45;;;;;;;4.65;1.00;;;17.00;99.90;;;16.44;100.00;101221.06;4153206;28;20022;-75
2023/08/28 00:18:47;;;;;;;3.90;0.98;;;17.10;99.90;;;16.53;100.00;101222.63;4135540;28;20117;-75
2023/08/28 00:20:48;;;;;;;6.53;0.88;;;17.10;99.90;;;16.49;100.00;101217.81;4152682;28;20076;-75
2023/08/28 00:22:49;;;;;;;4.10;0.73;;;17.10;99.90;;;16.53;100.00;101222.63;4151917;28;20026;-75
2023/08/28 00:24:50;;;;;;;3.50;0.90;;;17.10;99.90;;;16.46;100.00;101211.03;4152824;28;20512;-75
2023/08/28 00:26:51;;;;;;;2.28;0.82;;;17.10;99.90;;;16.48;100.00;101208.22;4151777;28;20030;-75
2023/08/28 00:28:51;;;;;;;2.33;0.68;;;17.10;99.90;;;16.52;100.00;101212.97;4167826;28;20022;-75
2023/08/28 00:30:52;;;;;;;6.60;1.15;;;17.10;99.90;;;16.46;100.00;101202.22;4151939;28;20022;-75
2023/08/28 00:32:53;;;;;;;2.63;1.42;;;17.10;99.90;;;16.52;100.00;101201.47;4143787;28;20026;-75
2023/08/28 00:34:54;;;;;;;3.22;0.80;;;17.10;99.90;;;16.46;100.00;101203.03;4150499;28;20485;-75
2023/08/28 00:36:55;;;;;;;3.97;1.08;;;17.10;99.90;;;16.43;100.00;101192.75;4150591;28;20050;-75
2023/08/28 00:38:57;;;;;;;4.43;1.13;;;17.10;99.90;;;16.43;100.00;101187.44;4134765;28;20517;-75
2023/08/28 00:40:58;;;;;;;1.95;0.98;;;17.10;99.90;;;16.41;100.00;101194.78;4152746;28;20025;-75
2023/08/28 00:42:59;;;;;;;4.75;1.48;;;17.00;99.90;;;16.42;100.00;101190.28;4151529;28;20064;-75
2023/08/28 00:45:00;;;;;;;3.00;1.13;;;17.00;99.90;;;16.42;100.00;101187.63;4152438;28;20034;-75
2023/08/28 00:47:05;;;;;;;3.67;1.10;;;17.00;99.90;;;16.42;100.00;101180.47;4152741;28;20030;-75
2023/08/28 00:49:06;;;;;;;2.72;1.15;;;17.00;99.90;;;16.41;100.00;101176.16;4151585;28;20030;-75
2023/08/28 00:51:08;;;;;;;4.45;1.05;;;17.10;99.90;;;16.39;100.00;101175.53;4151049;28;20036;-75
2023/08/28 00:53:11;;;;;;;4.57;1.00;;;17.00;99.90;;;16.39;100.00;101172.84;4151180;28;20030;-75
2023/08/28 00:55:12;;;;;;;2.83;0.85;;;17.00;99.90;;;16.41;100.00;101173.50;4152619;28;20034;-75
2023/08/28 00:57:16;;;;;;;5.00;0.90;;;17.00;99.90;;;16.42;100.00;101179.66;4151396;28;20108;-75
2023/08/28 00:59:17;;;;;;;3.85;0.93;;;17.00;99.90;;;16.45;100.00;101172.13;4152571;28;20068;-75
2023/08/28 01:01:18;;;;;;;3.38;0.90;;;17.10;99.90;;;16.44;100.00;101178.44;4151147;28;20029;-75
2023/08/28 01:03:19;;;;;;;2.40;0.75;;;17.10;99.90;;;16.46;100.00;101172.91;4152530;28;20029;-75
2023/08/28 01:05:44;;;;;;;1.88;0.90;;;17.00;99.90;;;16.44;100.00;101159.81;4152549;28;20068;-75
2023/08/28 01:08:40;;;;;;;;;;;17.00;99.90;;;16.42;100.00;101177.81;4132919;28;20634;-75
2023/08/28 01:10:53;;;;;;;2.47;0.75;;;17.10;99.90;;;16.43;100.00;101168.78;4143580;28;19921;-75
2023/08/28 01:13:11;;;;;;;1.17;0.63;;;17.00;99.90;;;16.49;100.00;101177.88;4151308;28;20045;-75
2023/08/28 01:15:21;;;;;;;3.45;0.88;;;17.10;99.90;;;16.44;100.00;101173.13;4144304;28;20037;-75
2023/08/28 01:17:24;;;;;;;3.50;0.98;;;17.10;99.90;;;16.43;100.00;101179.44;4151118;28;20026;-75
2023/08/28 01:19:33;;;;;;;3.53;0.80;;;17.10;99.90;;;16.45;100.00;101176.63;4151258;28;20034;-75
2023/08/28 01:21:34;;;;;;;2.97;0.88;;;17.00;99.90;;;16.44;100.00;101174.94;4151334;28;20033;-75
2023/08/28 01:23:46;;;;;;;2.83;0.80;;;17.10;99.90;;;16.47;100.00;101172.75;4152205;28;20028;-75
2023/08/28 01:25:48;;;;;;;3.30;0.80;;;17.00;99.90;;;16.47;100.00;101172.75;4150407;28;20038;-75
2023/08/28 01:27:49;;;;;;;3.53;1.10;;;17.10;99.90;;;16.45;100.00;101166.78;4151158;28;20032;-75
2023/08/28 01:30:11;;;;;;;2.90;0.77;;;17.10;99.90;;;16.47;100.00;101162.09;4151129;28;20072;-75
2023/08/28 01:32:12;;;;;;;2.10;0.63;;;17.00;99.90;;;16.41;100.00;101164.66;4150939;28;20034;-75
2023/08/28 01:34:13;;;;;;;1.67;0.82;;;17.00;99.90;;;16.44;100.00;101165.13;4147517;28;20021;-75
2023/08/28 01:36:31;;;;;;;1.10;0.57;;;17.00;99.90;;;16.47;100.00;101167.44;4149772;28;20022;-75
2023/08/28 01:38:38;;;;;;;2.58;0.82;;;17.00;99.90;;;16.45;100.00;101152.66;4150478;28;20477;-75
2023/08/28 01:40:57;;;;;;;1.60;0.50;;;17.00;99.90;;;16.46;100.00;101152.44;4151092;28;20540;-75
2023/08/28 01:43:01;;;;;;;1.73;0.50;;;17.00;99.90;;;16.47;100.00;101148.78;4152230;28;20025;-75
2023/08/28 01:45:03;;;;;;;0.70;0.40;;;17.10;99.90;;;16.47;100.00;101150.63;4151963;28;20033;-75
2023/08/28 01:47:05;;;;;;;1.58;0.60;;;17.00;99.90;;;16.39;100.00;101142.72;4152178;28;20036;-75
2023/08/28 01:49:06;;;;;;;2.10;0.50;;;17.00;99.90;;;16.43;100.00;101144.84;4134530;28;20031;-75
2023/08/28 01:51:07;;;;;;;1.50;0.45;;;17.00;99.90;;;16.49;100.00;101151.25;4151877;28;20419;-75
2023/08/28 01:53:08;;;;;;;1.58;0.47;;;17.00;99.90;;;16.43;100.00;101144.84;4151942;28;20026;-75
2023/08/28 01:55:09;;;;;;;1.45;0.52;;;17.00;99.90;;;16.41;100.00;101143.38;4150969;28;20041;-75
2023/08/28 01:57:09;;;;;;;1.90;0.40;;;17.00;99.90;;;16.44;100.00;101145.66;4150882;28;20118;-75
2023/08/28 01:59:10;;;;;;;2.88;1.42;;;17.00;99.90;;;16.40;100.00;101136.38;4134527;28;20073;-75
2023/08/28 02:01:12;;;;;;;1.35;0.88;;;17.00;99.90;;;16.40;100.00;101147.03;4150843;28;20034;-75
2023/08/28 02:03:12;;;;;;;2.10;0.63;;;17.00;99.90;;;16.39;100.00;101148.06;4150926;28;20482;-75
2023/08/28 02:05:13;;;;;;;1.55;0.55;;;17.00;99.90;;;16.36;100.00;101137.78;4151912;28;20057;-75
2023/08/28 02:07:14;;;;;;;1.23;0.40;;;17.00;99.90;;;16.35;100.00;101146.75;4150500;28;20030;-75
2023/08/28 02:09:15;;;;;;;2.90;0.70;;;16.90;99.90;;;16.30;100.00;101142.00;4150631;28;20029;-75
2023/08/28 02:11:17;;;;;;;1.15;0.50;;;16.90;99.90;;;16.28;100.00;101136.00;4151937;28;20022;-75
2023/08/28 02:13:17;;;;;;;1.70;0.60;;;16.90;99.90;;;16.25;100.00;101152.34;4151944;28;20597;-75
2023/08/28 02:15:19;;;;;;;1.00;0.40;;;16.90;99.90;;;16.23;100.00;101138.41;4150650;28;20030;-75
2023/08/28 02:17:20;;;;;;;1.08;0.47;;;16.80;99.90;;;16.21;100.00;101135.13;4150680;28;20033;-75
2023/08/28 02:19:21;;;;;;;2.13;0.60;;;16.80;99.90;;;16.14;100.00;101139.50;4152108;28;20030;-75
2023/08/28 02:21:21;;;;;;;2.30;0.50;;;16.70;99.90;;;16.02;100.00;101130.31;4151512;28;20029;-75
2023/08/28 02:23:22;;;;;;;2.63;0.40;;;16.60;99.90;;;15.93;100.00;101128.75;4151918;28;20038;-75
2023/08/28 02:25:23;;;;;;;1.33;0.40;;;16.60;99.90;;;15.86;100.00;101122.50;4150614;28;20034;-75
2023/08/28 02:27:25;;;;;;;0.68;0.50;;;16.50;99.90;;;15.83;100.00;101125.53;4150640;28;20022;-75
2023/08/28 02:29:25;;;;;;;2.05;0.50;;;16.50;99.90;;;15.80;100.00;101120.56;4151858;28;20092;-75
2023/08/28 02:31:26;;;;;;;0.65;0.40;;;16.40;99.90;;;15.76;100.00;101124.59;4152665;28;20033;-75
2023/08/28 02:33:27;;;;;;;1.40;0.70;;;16.40;99.90;;;15.73;100.00;101116.97;4153525;28;20472;-75
2023/08/28 02:35:28;;;;;;;1.00;0.50;;;16.40;99.90;;;15.67;100.00;101115.84;4167120;28;20520;-75
2023/08/28 02:37:29;;;;;;;1.48;0.63;;;16.30;99.90;;;15.68;100.00;101122.00;4142491;28;20176;-75
2023/08/28 02:39:30;;;;;;;1.77;0.50;;;16.30;99.90;;;15.68;100.00;101122.00;4154647;28;20026;-75
2023/08/28 02:41:31;;;;;;;1.15;0.52;;;16.30;99.90;;;15.69;100.00;101123.63;4137340;28;20053;-76
2023/08/28 02:43:33;;;;;;;1.92;0.88;;;16.30;99.90;;;15.69;100.00;101118.31;4153405;28;20120;-75
2023/08/28 02:45:39;;;;;;;1.08;0.50;;;16.30;99.90;;;15.63;100.00;101116.38;4153338;28;20022;-75
2023/08/28 02:47:40;;;;;;;1.10;0.47;;;16.20;99.90;;;15.61;100.00;101111.25;4154559;28;20022;-75
2023/08/28 02:49:41;;;;;;;2.25;0.77;;;16.20;99.90;;;15.66;100.00;101124.00;4153332;28;20022;-75
2023/08/28 02:51:42;;;;;;;1.27;0.50;;;16.20;99.90;;;15.65;100.00;101131.16;4154033;28;20038;-76
2023/08/28 02:53:43;;;;;;;0.85;0.47;;;16.20;99.90;;;15.64;100.00;101120.69;4148373;28;20029;-75
2023/08/28 02:56:18;;;;;;;0.90;0.32;;;16.20;99.90;;;15.64;100.00;101132.16;4153187;28;20401;-75
2023/08/28 02:58:19;;;;;;;1.98;0.40;;;16.20;99.90;;;15.63;100.00;101135.00;4136792;28;20065;-75
2023/08/28 03:00:20;;;;;;;1.88;0.40;;;16.20;99.90;;;15.61;100.00;101132.53;4154515;28;20092;-75
2023/08/28 03:02:20;;;;;;;0.82;0.30;;;16.20;99.90;;;15.64;100.00;101137.50;4153149;28;20034;-75
2023/08/28 03:04:21;;;;;;;0.65;0.38;;;16.20;99.90;;;15.63;100.00;101127.00;4154135;28;20148;-75
2023/08/28 03:06:22;;;;;;;0.82;0.57;;;16.20;99.90;;;15.66;100.00;101129.31;4152769;28;20026;-75
2023/08/28 03:08:23;;;;;;;1.60;0.52;;;16.30;99.90;;;15.69;100.00;101131.63;4152820;28;20482;-75
2023/08/28 03:10:24;;;;;;;1.38;0.50;;;16.30;99.90;;;15.69;100.00;101127.13;4169171;28;20029;-75
2023/08/28 03:12:25;;;;;;;3.22;0.60;;;16.30;99.90;;;15.77;100.00;101128.91;4152896;28;20485;-75
2023/08/28 03:14:26;;;;;;;1.30;0.70;;;16.30;99.90;;;15.76;100.00;101135.22;4154046;28;20033;-75
2023/08/28 03:16:27;;;;;;;1.40;0.60;;;16.40;99.90;;;15.79;100.00;101122.41;4152910;28;20034;-75
2023/08/28 03:18:27;;;;;;;0.88;0.60;;;16.40;99.90;;;15.78;100.00;101130.53;4154012;28;20041;-75
2023/08/28 03:20:28;;;;;;;1.40;0.60;;;16.40;99.90;;;15.80;100.00;101131.22;4152573;28;20038;-75
2023/08/28 03:22:29;;;;;;;0.90;0.52;;;16.40;99.90;;;15.78;100.00;101130.53;4153945;28;20030;-76
2023/08/28 03:24:31;;;;;;;3.42;0.85;;;16.40;99.90;;;15.71;100.00;101127.78;4153945;28;20141;-75
2023/08/28 03:26:32;;;;;;;2.00;0.65;;;16.30;99.90;;;15.59;100.00;101141.69;4149129;28;20094;-75
2023/08/28 03:28:33;;;;;;;1.30;0.60;;;16.20;99.90;;;15.45;100.00;101130.78;4147866;28;20026;-74
2023/08/28 03:30:34;;;;;;;1.50;0.80;;;16.10;99.90;;;15.34;100.00;101131.22;4135862;28;20026;-75
2023/08/28 03:32:35;;;;;;;2.28;0.80;;;16.00;99.90;;;15.28;100.00;101137.25;4152785;28;20097;-75
2023/08/28 03:34:36;;;;;;;2.47;0.80;;;15.90;99.90;;;15.23;100.00;101141.44;4153844;28;20026;-75
2023/08/28 03:36:36;;;;;;;1.83;0.70;;;15.90;99.90;;;15.26;100.00;101131.25;4148121;28;20050;-75
2023/08/28 03:38:37;;;;;;;1.98;0.90;;;15.90;99.90;;;15.34;100.00;101141.84;4153521;28;20521;-75
2023/08/28 03:40:38;;;;;;;2.00;0.63;;;15.90;99.90;;;15.41;100.00;101140.13;4152529;28;20033;-75
2023/08/28 03:42:39;;;;;;;1.10;0.65;;;16.00;99.90;;;15.49;100.00;101128.63;4152948;28;20018;-75
2023/08/28 03:44:40;;;;;;;2.65;0.77;;;16.00;99.90;;;15.53;100.00;101135.22;4153220;28;20060;-75
2023/08/28 03:46:41;;;;;;;2.97;0.75;;;16.10;99.90;;;15.47;100.00;101120.81;4153424;28;20028;-75
2023/08/28 03:48:42;;;;;;;1.33;0.98;;;16.10;99.90;;;15.41;100.00;101128.69;4152608;28;20394;-75
2023/08/28 03:50:43;;;;;;;2.20;1.05;;;16.00;99.90;;;15.32;100.00;101121.78;4152031;28;20025;-75
2023/08/28 03:52:43;;;;;;;3.95;1.05;;;15.90;99.90;;;15.21;100.00;101135.44;4140887;28;20030;-75
2023/08/28 03:54:44;;;;;;;2.38;1.45;;;15.90;99.90;;;15.11;100.00;101125.06;4147810;28;20022;-75
2023/08/28 03:56:45;;;;;;;3.60;0.90;;;15.80;99.90;;;15.01;100.00;101123.63;4152146;28;20034;-75
2023/08/28 03:58:47;;;;;;;3.60;1.40;;;15.70;99.90;;;14.93;100.00;101124.50;4128219;28;20414;-75
2023/08/28 04:00:53;;;;;;;3.60;1.63;;;15.60;99.90;;;14.91;100.00;101124.66;4147827;28;20037;-75
2023/08/28 04:02:54;;;;;;;4.90;1.25;;;15.50;99.90;;;14.79;100.00;101123.41;4153157;28;20029;-75
2023/08/28 04:04:56;;;;;;;2.03;1.35;;;15.50;99.90;;;14.82;100.00;101135.50;4152059;28;20112;-75
2023/08/28 04:07:02;;;;;;;4.07;1.60;;;15.50;99.90;;;14.73;100.00;101136.56;4152873;28;20157;-75
2023/08/28 04:09:03;;;;;;;3.95;1.40;;;15.40;99.90;;;14.71;100.00;101135.91;4152011;28;20429;-76
2023/08/28 04:11:04;;;;;;;5.30;1.75;;;15.40;99.90;;;14.67;100.00;101142.53;4151888;28;20022;-75
2023/08/28 04:13:05;;;;;;;5.63;2.00;;;15.40;99.90;;;14.61;100.00;101137.94;4153267;28;20395;-76
2023/08/28 04:15:09;;;;;;;3.78;1.45;;;15.30;99.90;;;14.58;100.00;101143.59;4153158;28;20033;-75
2023/08/28 04:17:10;;;;;;;3.40;1.50;;;15.20;99.90;;;14.44;100.00;101142.47;4151845;28;20030;-75
2023/08/28 04:19:11;;;;;;;2.72;1.20;;;15.20;99.90;;;14.45;100.00;101148.63;4151342;28;20088;-75
2023/08/28 04:21:12;;;;;;;3.28;1.58;;;15.10;99.90;;;14.39;100.00;101150.16;4152936;28;20025;-75
2023/08/28 04:23:13;;;;;;;4.80;1.60;;;15.10;99.90;;;14.37;100.00;101146.81;4151841;28;20041;-75
2023/08/28 04:25:14;;;;;;;2.85;1.45;;;15.00;99.90;;;14.29;100.00;101150.28;4152873;28;20052;-75
2023/08/28 04:27:15;;;;;;;2.97;1.58;;;15.00;99.90;;;14.33;100.00;101153.47;4151694;28;20032;-75
2023/08/28 04:29:16;;;;;;;3.70;1.70;;;14.90;99.90;;;14.31;100.00;101156.25;4151669;28;20053;-75
2023/08/28 04:31:17;;;;;;;5.85;1.60;;;15.00;99.90;;;14.28;100.00;101153.94;4151643;28;20026;-75
2023/08/28 04:33:17;;;;;;;4.70;1.38;;;15.00;99.90;;;14.22;100.00;101154.63;4146346;28;20033;-75
2023/08/28 04:35:18;;;;;;;4.70;1.90;;;14.90;99.90;;;14.31;100.00;101153.59;4150581;28;20505;-75
2023/08/28 04:37:19;;;;;;;5.05;1.60;;;14.90;99.90;;;14.34;100.00;101150.63;4152695;28;20072;-75
2023/08/28 04:39:22;;;;;;;4.63;1.67;;;15.00;99.90;;;14.34;100.00;101150.63;4151655;28;20062;-75
2023/08/28 04:41:23;;;;;;;3.65;1.70;;;15.00;99.90;;;14.32;100.00;101155.28;4151630;28;20477;-75
2023/08/28 04:43:24;;;;;;;3.70;1.48;;;14.90;99.90;;;14.24;100.00;101146.50;4152630;28;20041;-75
2023/08/28 04:45:25;;;;;;;4.82;1.60;;;15.00;99.90;;;14.25;100.00;101159.59;4151750;28;20034;-75
2023/08/28 04:47:26;;;;;;;5.88;2.05;;;14.90;99.90;;;14.25;100.00;101159.59;4152736;28;20025;-75
2023/08/28 04:49:27;;;;;;;4.70;1.80;;;14.90;99.90;;;14.28;100.00;101143.31;4151503;28;20026;-75
2023/08/28 04:51:28;;;;;;;3.10;1.60;;;14.90;99.90;;;14.23;100.00;101158.09;4136452;28;20498;-75
2023/08/28 04:53:28;;;;;;;4.43;2.42;;;14.90;99.90;;;14.20;100.00;101147.81;4140921;28;20179;-75
2023/08/28 04:55:29;;;;;;;6.97;2.65;;;14.80;99.90;;;14.09;100.00;101145.53;4152291;28;20030;-75
2023/08/28 04:57:32;;;;;;;5.63;2.13;;;14.80;99.90;;;14.09;100.00;101151.69;4150497;28;20041;-75
2023/08/28 04:59:33;;;;;;;9.65;2.60;;;14.80;99.90;;;14.20;100.00;101159.28;4120708;28;20027;-75
2023/08/28 05:01:34;;;;;;;3.75;2.45;;;14.80;99.90;;;14.16;100.00;101149.97;4140984;28;20030;-75
2023/08/28 05:03:35;;;;;;;4.65;2.25;;;14.80;99.90;;;14.18;100.00;101157.78;4152583;28;20030;-75
2023/08/28 05:05:36;;;;;;;4.90;1.85;;;14.80;99.90;;;14.14;100.00;101162.59;4152171;28;20068;-75
2023/08/28 05:07:37;;;;;;;5.38;2.05;;;14.70;99.90;;;14.10;100.00;101166.56;4134919;28;20026;-75
2023/08/28 05:09:38;;;;;;;4.90;2.30;;;14.70;99.90;;;14.07;100.00;101161.59;4152420;28;20029;-75
2023/08/28 05:11:39;;;;;;;3.80;1.70;;;14.70;99.90;;;14.03;100.00;101168.25;4151332;28;20022;-75
2023/08/28 05:13:39;;;;;;;4.20;1.83;;;14.70;99.90;;;13.96;100.00;101164.63;4152391;28;20113;-75
2023/08/28 05:15:40;;;;;;;5.78;1.80;;;14.60;99.90;;;13.94;100.00;101158.66;4151055;28;20065;-75
2023/08/28 05:17:41;;;;;;;4.07;2.38;;;14.60;99.90;;;13.91;100.00;101169.59;4151055;28;20452;-75
2023/08/28 05:19:42;;;;;;;6.00;2.38;;;14.60;99.90;;;14.00;100.00;101168.59;4152400;28;20026;-75
2023/08/28 05:21:43;;;;;;;4.88;2.20;;;14.60;99.90;;;13.93;100.00;101170.25;4152164;28;20034;-75
2023/08/28 05:23:43;;;;;;;6.43;2.60;;;14.60;99.90;;;13.91;100.00;101171.41;4151024;28;20105;-75
2023/08/28 05:25:44;;;;;;;5.90;2.15;;;14.60;99.90;;;13.96;100.00;101180.53;4152347;28;20041;-75
2023/08/28 05:27:45;;;;;;;5.10;2.00;;;14.60;99.90;;;13.94;100.00;101179.88;4150773;28;20524;-75
2023/08/28 05:29:47;;;;;;;3.72;2.25;;;14.60;99.90;;;13.85;100.00;101170.28;4150994;28;20441;-75
2023/08/28 05:31:48;;;;;;;4.68;2.05;;;14.50;99.90;;;13.85;100.00;101176.41;4151184;28;20034;-75
2023/08/28 05:33:49;;;;;;;4.15;2.08;;;14.50;99.90;;;13.81;100.00;101172.41;4151045;28;20433;-75
2023/08/28 05:35:50;;;;;;;3.75;1.63;;;14.50;99.90;;;13.74;100.00;101166.13;4159741;28;20440;-75
2023/08/28 05:37:52;;;;;;;4.00;1.73;;;14.40;99.90;;;13.76;100.00;101179.22;4149539;28;20053;-75
2023/08/28 05:39:53;;;;;;;3.53;2.03;;;14.40;99.90;;;13.72;100.00;101175.22;4150876;28;20062;-76
2023/08/28 05:41:54;;;;;;;5.05;2.08;;;14.40;99.90;;;13.76;100.00;101181.88;4139678;28;20033;-75
2023/08/28 05:43:55;;;;;;;4.80;2.28;;;14.40;99.90;;;13.76;100.00;101180.06;4150356;28;20518;-75
2023/08/28 05:45:55;;;;;;;3.28;1.98;;;14.40;99.90;;;13.79;100.00;101181.53;4151200;28;20370;-75
2023/08/28 05:47:56;;;;;;;4.38;2.00;;;14.40;99.90;;;13.77;100.00;101187.00;4151750;28;20026;-75
2023/08/28 05:49:57;;;;;;;4.75;1.88;;;14.40;99.90;;;13.71;100.00;101177.06;4151431;28;20026;-76
2023/08/28 05:51:58;;;;;;;3.33;2.10;;;14.40;99.90;;;13.78;100.00;101193.97;4151232;28;20402;-74
2023/08/28 05:53:59;;;;;;;4.22;2.45;;;14.40;99.90;;;13.79;100.00;101195.63;4151701;28;20397;-74
2023/08/28 05:56:00;;;;;;;4.35;2.13;;;14.40;99.90;;;13.80;100.00;101196.44;4150247;28;20026;-75
2023/08/28 05:58:01;;;;;;;3.47;2.10;;;14.40;99.90;;;13.77;100.00;101196.75;4149421;28;20038;-74
2023/08/28 06:00:03;;;;;;;5.63;2.08;;;14.40;99.90;;;13.83;100.00;101193.44;4150184;28;20030;-74
2023/08/28 06:02:04;;;;;;;6.07;2.15;;;14.40;99.90;;;13.82;100.00;101194.47;4143859;28;20037;-74
2023/08/28 06:04:05;;;;;;;9.65;2.38;;;14.40;99.90;;;13.88;100.00;101191.16;4150790;28;20037;-75
2023/08/28 06:06:06;;;;;;;5.50;1.90;;;14.50;99.90;;;13.91;100.00;101195.28;4152072;28;20111;-74
2023/08/28 06:08:07;;;;;;;7.35;2.90;;;14.50;99.90;;;13.90;100.00;101193.63;4153352;28;20482;-75
2023/08/28 06:10:19;;;;;;;5.95;2.13;;;14.50;99.90;;;13.93;100.00;101190.63;4155105;28;20018;-75
2023/08/28 06:12:19;;;;;;;7.72;2.40;;;14.50;99.90;;;13.98;100.00;101188.34;4155166;28;20022;-74
2023/08/28 06:14:20;;;;;;;5.93;2.58;;;14.60;99.90;;;13.97;100.00;101190.16;4155239;28;20034;-75
2023/08/28 06:16:21;;;;;;;5.63;2.53;;;14.60;99.90;;;13.99;100.00;101182.00;4154057;28;20053;-75
2023/08/28 06:18:22;;;;;;;10.90;2.85;;;14.60;99.90;;;14.02;100.00;101187.81;4155021;28;20030;-75
2023/08/28 06:20:23;;;;;;;5.15;2.28;;;14.60;99.90;;;14.06;100.00;101197.09;4154681;28;20512;-75
2023/08/28 06:22:24;;;;;;;5.88;3.08;;;14.70;99.90;;;14.07;100.00;101195.25;4154757;28;20061;-75
2023/08/28 06:24:25;;;;;;;8.23;3.05;;;14.70;99.90;;;14.11;100.00;101193.94;4154895;28;20026;-74
2023/08/28 06:26:25;;;;;;;8.23;2.50;;;14.70;99.90;;;14.05;100.00;101182.19;4154928;28;20022;-74
2023/08/28 06:28:26;;;;;;;5.10;3.03;;;14.70;99.90;;;14.11;100.00;101192.13;4154815;28;20026;-75
2023/08/28 06:30:27;;;;;;;4.97;2.70;;;14.70;99.90;;;14.16;100.00;101194.25;4154558;28;20474;-75
2023/08/28 06:32:28;;;;;;;6.25;2.70;;;14.70;99.90;;;14.18;100.00;101192.28;4153794;28;20022;-74
2023/08/28 06:34:29;;;;;;;7.20;2.88;;;14.80;99.90;;;14.20;100.00;101191.13;4150526;28;20485;-75
2023/08/28 06:36:30;;;;;;;5.70;2.55;;;14.80;99.90;;;14.25;100.00;101187.94;4148555;28;20064;-75
2023/08/28 06:38:31;;;;;;;7.45;2.90;;;14.80;99.90;;;14.29;100.00;101195.41;4147278;28;20172;-75
2023/08/28 06:40:32;;;;;;;6.85;3.08;;;14.90;99.90;;;14.35;100.00;101196.59;4151168;28;20061;-75
2023/08/28 06:42:33;;;;;;;4.05;2.53;;;14.90;99.90;;;14.35;100.00;101189.47;4146121;28;20498;-75
2023/08/28 06:44:35;;;;;;;4.72;2.22;;;15.00;99.90;;;14.42;100.00;101194.94;4153356;28;20509;-75
2023/08/28 06:46:37;;;;;;;7.45;3.20;;;15.00;99.90;;;14.44;100.00;101192.09;4154576;28;20080;-75
2023/08/28 06:48:38;;;;;;;6.45;2.97;;;15.00;99.90;;;14.47;100.00;101184.63;4154271;28;20021;-75
2023/08/28 06:50:39;;;;;;;7.00;2.70;;;15.10;99.90;;;14.52;100.00;101184.09;4153138;28;20033;-76
2023/08/28 06:52:40;;;;;;;6.75;3.50;;;15.10;99.90;;;14.66;100.00;101189.53;4148074;28;20110;-76
2023/08/28 06:54:40;;;;;;;8.23;3.40;;;15.20;99.90;;;14.69;100.00;101199.81;4150790;28;20508;-75
2023/08/28 06:56:41;;;;;;;4.85;2.83;;;15.20;99.90;;;14.73;100.00;101194.97;4154367;28;20037;-75
2023/08/28 06:58:42;;;;;;;5.95;3.10;;;15.30;99.90;;;14.75;100.00;101201.78;4153048;28;20025;-75
2023/08/28 07:00:43;;;;;;;7.68;3.15;;;15.30;99.90;;;14.79;100.00;101199.59;4153154;28;20104;-75
2023/08/28 07:02:44;;;;;;;7.10;2.63;;;15.40;99.90;;;14.83;100.00;101198.25;4154275;28;20025;-75
2023/08/28 07:04:45;;;;;;;6.43;3.08;;;15.40;99.90;;;14.86;100.00;101189.94;4154589;28;20076;-76
2023/08/28 07:06:46;;;;;;;8.48;3.53;;;15.50;99.90;;;14.91;100.00;101192.91;4152939;28;20022;-75
2023/08/28 07:08:47;;;;;;;6.97;3.17;;;15.50;99.90;;;14.91;100.00;101187.59;4136494;28;20537;-75
2023/08/28 07:10:48;;;;;;;10.23;3.95;;;15.60;99.90;;;15.05;100.00;101205.47;4153018;28;20573;-76
2023/08/28 07:12:48;;;;;;;10.07;4.00;;;15.60;99.90;;;15.10;100.00;101212.91;4154009;28;20030;-75
2023/08/28 07:15:45;;;;;;;7.90;2.72;;;15.70;99.90;;;15.11;100.00;101209.28;4154208;28;20429;-75
2023/08/28 07:17:46;;;;;;;11.82;3.72;;;15.70;99.90;;;15.19;100.00;101215.38;4139824;28;20046;-75
2023/08/28 07:19:47;;;;;;;8.70;3.92;;;15.80;99.90;;;15.20;100.00;101205.56;4136599;28;20035;-75
2023/08/28 07:21:48;;;;;;;6.10;3.25;;;15.80;99.90;;;15.26;100.00;101216.31;4153805;28;20485;-75
2023/08/28 07:23:51;;;;;;;8.10;3.20;;;15.80;99.90;;;15.35;100.00;101215.25;4153967;28;20093;-75
2023/08/28 07:25:52;;;;;;;8.18;3.53;;;15.90;99.90;;;15.40;100.00;101214.75;4153695;28;20117;-75
2023/08/28 07:27:54;;;;;;;6.95;3.45;;;16.00;99.90;;;15.46;100.00;101208.72;4152826;28;20030;-75
2023/08/28 07:29:57;;;;;;;8.45;3.17;;;16.00;99.90;;;15.55;100.00;101214.84;4152779;28;20033;-75
2023/08/28 07:31:58;;;;;;;7.07;3.30;;;16.10;99.90;;;15.55;100.00;101202.38;4153753;28;20080;-75
2023/08/28 07:33:59;;;;;;;8.23;2.78;;;16.20;99.90;;;15.63;100.00;101214.78;4133278;28;20678;-75
2023/08/28 07:36:00;;;;;;;6.97;3.53;;;16.20;99.90;;;15.69;100.00;101214.06;4153124;28;20030;-76
2023/08/28 07:38:05;;;;;;;7.53;2.80;;;16.20;99.90;;;15.70;100.00;101213.06;4152314;28;20049;-75
2023/08/28 07:40:08;;;;;;;9.10;3.47;;;16.30;99.90;;;15.74;100.00;101215.19;4136156;28;20026;-75
2023/08/28 07:42:09;;;;;;;10.63;3.28;;;16.30;99.90;;;15.79;100.00;101220.00;4152474;28;20029;-75
2023/08/28 07:44:09;;;;;;;8.40;3.38;;;16.40;99.90;;;15.85;100.00;101224.59;4152540;28;20025;-75
2023/08/28 07:46:10;;;;;;;6.10;2.97;;;16.40;99.90;;;15.94;100.00;101223.53;4153766;28;20022;-75
2023/08/28 07:48:12;;;;;;;4.72;2.63;;;16.50;99.90;;;15.97;100.00;101221.34;4152205;28;20037;-75
2023/08/28 07:50:13;;;;;;;8.65;2.80;;;16.60;99.90;;;16.08;100.00;101209.44;4152121;28;20037;-75
2023/08/28 07:52:14;;;;;;;5.90;2.75;;;16.70;99.90;;;16.13;100.00;101204.38;4147678;28;20568;-75
2023/08/28 07:54:15;;;;;;;8.35;2.90;;;16.70;99.90;;;16.14;100.00;101195.41;4146661;28;20026;-75
2023/08/28 07:56:15;;;;;;;6.07;2.40;;;16.80;99.90;;;16.28;100.00;101207.06;4153507;28;20026;-76
2023/08/28 07:58:18;;;;;;;7.85;3.05;;;16.90;99.90;;;16.32;100.00;101216.34;4152483;28;20037;-75
2023/08/28 08:00:22;;;;;;;6.72;2.83;;;16.90;99.90;;;16.36;100.00;101205.16;4153459;28;20054;-75
2023/08/28 08:02:23;;;;;;;;;;;16.90;99.90;;;16.42;100.00;101211.59;4147983;28;20446;-75
2023/08/28 08:04:26;;;;;;;4.32;2.30;;;17.00;99.90;;;16.51;100.00;101205.19;4151039;28;19913;-76
2023/08/28 08:06:27;;;;;;;6.32;2.83;;;17.10;99.90;;;16.59;100.00;101208.59;4151986;28;20045;-76
2023/08/28 08:08:27;;;;;;;8.93;2.90;;;17.20;99.90;;;16.69;100.00;101203.00;4151999;28;20085;-75
2023/08/28 08:10:29;;;;;;;7.20;3.00;;;17.30;99.90;;;16.81;100.00;101208.69;4153251;28;20033;-75
2023/08/28 08:12:29;;;;;;;7.90;2.97;;;17.40;99.90;;;16.80;100.00;101204.38;4153085;28;20041;-76
2023/08/28 08:14:30;;;;;;;7.40;2.60;;;17.40;99.90;;;16.92;100.00;101214.38;4153267;28;20022;-75
2023/08/28 08:16:31;;;;;;;8.13;2.67;;;17.50;99.90;;;17.02;100.00;101206.09;4136015;28;20042;-75
2023/08/28 08:18:32;;;;;;;8.90;2.80;;;17.50;99.90;;;16.96;100.00;101196.19;4151949;28;20054;-75
2023/08/28 08:20:33;;;;;;;8.07;2.60;;;17.60;99.90;;;17.11;100.00;101212.97;4148846;28;20469;-75
2023/08/28 08:22:34;;;;;;;7.45;2.60;;;17.70;99.90;;;17.22;100.00;101208.97;4132127;28;20029;-75